Time;durP1;ratioP1;P1;durP2;ratioP2;P2;SDS_P1;SDS_P2;PMS_P1;PMS_P2;Temp;Humidity;BMP_temperature;BMP_pressure;BME280_temperature;BME280_humidity;BME280_pressure;Samples;Min_cycle;Max_cycle;Signal;HPM_P1;HPM_P2
2022/05/20 00:00:49;;;;;;;1.00;0.50;;;;;;;12.90;51.04;99709.08;103446;1302;22654;-28
2022/05/20 00:03:17;;;;;;;7.00;0.40;;;;;;;12.91;50.83;99704.02;103497;1302;22761;-28
2022/05/20 00:05:47;;;;;;;5.10;0.40;;;;;;;12.91;50.88;99698.55;103525;1302;22514;-28
2022/05/20 00:08:16;;;;;;;3.60;0.50;;;;;;;12.89;51.11;99697.71;103442;1302;22509;-29
2022/05/20 00:10:45;;;;;;;2.10;0.80;;;;;;;12.93;51.20;99692.91;103482;1302;22506;-28
2022/05/20 00:13:15;;;;;;;1.10;0.60;;;;;;;12.96;50.62;99687.45;103518;1302;23852;-29
2022/05/20 00:15:44;;;;;;;2.10;0.50;;;;;;;12.88;51.23;99688.75;103456;1302;22507;-29
2022/05/20 00:18:13;;;;;;;0.60;0.30;;;;;;;12.87;51.14;99680.74;103519;1302;22530;-28
2022/05/20 00:20:42;;;;;;;2.50;0.80;;;;;;;12.82;51.06;99676.59;103520;1302;22663;-28
2022/05/20 00:23:11;;;;;;;0.50;0.30;;;;;;;12.80;51.12;99678.54;103538;1302;24037;-24
2022/05/20 00:28:19;;;;;;;1.40;0.60;;;;;;;12.86;50.70;99676.36;103495;1302;22632;-28
2022/05/20 00:30:51;;;;;;;1.60;0.50;;;;;;;12.91;50.70;99679.21;103471;1302;22800;-24
2022/05/20 00:33:21;;;;;;;12.70;0.70;;;;;;;12.92;50.61;99679.61;103501;1302;22513;-28
2022/05/20 00:35:50;;;;;;;5.70;0.50;;;;;;;13.01;50.44;99677.12;103516;1302;22505;-28
2022/05/20 00:38:19;;;;;;;2.70;0.70;;;;;;;13.04;50.61;99681.31;103547;1302;22516;-28
2022/05/20 00:40:50;;;;;;;0.70;0.40;;;;;;;13.00;50.23;99677.83;103518;1302;22503;-28
2022/05/20 00:43:28;;;;;;;0.90;0.70;;;;;;;12.99;50.67;99678.89;103507;1302;24029;-28
2022/05/20 00:45:59;;;;;;;4.30;0.50;;;;;;;13.01;50.29;99682.06;103488;1302;22645;-28
2022/05/20 00:48:28;;;;;;;1.20;0.50;;;;;;;13.06;50.29;99684.89;103434;1302;25231;-24
2022/05/20 00:51:02;;;;;;;1.70;0.70;;;;;;;13.05;50.28;99675.00;103435;1302;23564;-28
2022/05/20 00:53:34;;;;;;;1.10;0.30;;;;;;;13.00;50.38;99667.79;103501;1302;22509;-28
2022/05/20 00:56:03;;;;;;;1.30;0.70;;;;;;;13.02;50.29;99667.91;103543;1302;23577;-28
2022/05/20 00:58:32;;;;;;;0.90;0.40;;;;;;;12.98;50.33;99667.83;103426;1302;22522;-25
2022/05/20 01:01:03;;;;;;;1.30;0.50;;;;;;;12.93;50.67;99669.48;103490;1299;22824;-28
2022/05/20 01:03:32;;;;;;;0.60;0.50;;;;;;;13.00;50.40;99669.95;103493;1302;22500;-28
2022/05/20 01:06:02;;;;;;;0.60;0.40;;;;;;;12.97;50.79;99668.29;103458;1302;22508;-28
2022/05/20 01:08:32;;;;;;;0.80;0.50;;;;;;;12.91;50.96;99670.80;103438;1302;22527;-26
2022/05/20 01:11:01;;;;;;;11.30;0.40;;;;;;;12.92;50.58;99672.05;103507;1302;22574;-24
2022/05/20 01:13:30;;;;;;;1.30;0.50;;;;;;;12.91;50.85;99675.27;103469;1302;22742;-24
2022/05/20 01:16:02;;;;;;;2.50;0.70;;;;;;;12.90;50.71;99679.52;103381;1302;22632;-24
2022/05/20 01:18:33;;;;;;;1.20;0.40;;;;;;;12.90;50.73;99679.05;103455;1302;22516;-25
2022/05/20 01:21:02;;;;;;;1.80;0.60;;;;;;;12.94;50.31;99676.90;103484;1302;22763;-24
2022/05/20 01:23:33;;;;;;;1.70;0.60;;;;;;;12.92;50.94;99679.06;103469;1299;22509;-24
2022/05/20 01:26:02;;;;;;;0.70;0.40;;;;;;;12.89;50.72;99680.75;103459;1302;22505;-24
2022/05/20 01:28:31;;;;;;;1.30;0.40;;;;;;;12.85;50.89;99702.27;103439;1302;22511;-27
2022/05/20 01:31:03;;;;;;;1.10;0.50;;;;;;;12.84;50.86;99711.93;103398;1302;22502;-28
2022/05/20 01:33:35;;;;;;;0.90;0.40;;;;;;;12.80;51.12;99703.55;103501;1302;22571;-28
2022/05/20 01:36:07;;;;;;;4.60;0.60;;;;;;;12.71;51.44;99700.58;103463;1302;22516;-24
2022/05/20 01:38:36;;;;;;;0.70;0.40;;;;;;;12.68;51.43;99689.91;103512;1302;22804;-28
2022/05/20 01:41:07;;;;;;;2.60;0.80;;;;;;;12.61;52.13;99690.77;103451;1302;23741;-24
2022/05/20 01:43:41;;;;;;;1.20;0.60;;;;;;;12.59;51.24;99687.63;103438;1302;22499;-24
2022/05/20 01:46:13;;;;;;;0.80;0.30;;;;;;;12.57;51.12;99685.86;103415;1302;22635;-25
2022/05/20 01:48:48;;;;;;;0.90;0.40;;;;;;;12.56;51.06;99683.94;103495;1302;22538;-28
2022/05/20 01:51:18;;;;;;;2.50;0.60;;;;;;;12.52;51.62;99679.58;103441;1302;22856;-25
2022/05/20 01:53:50;;;;;;;0.80;0.40;;;;;;;12.46;52.27;99678.69;103417;1302;22606;-24
2022/05/20 01:56:23;;;;;;;1.00;0.50;;;;;;;12.42;52.41;99676.56;103443;1302;22511;-26
2022/05/20 01:58:57;;;;;;;2.00;0.80;;;;;;;12.37;52.70;99679.52;103508;1301;22775;-28
2022/05/20 02:01:29;;;;;;;2.50;0.60;;;;;;;12.37;52.05;99682.10;103474;1302;22635;-24
2022/05/20 02:04:02;;;;;;;5.20;0.70;;;;;;;12.34;51.95;99681.71;103495;1301;22813;-24
2022/05/20 02:06:33;;;;;;;0.30;0.30;;;;;;;12.31;52.08;99675.20;103482;1302;23489;-27
2022/05/20 02:09:02;;;;;;;0.40;0.40;;;;;;;12.32;52.28;99679.14;103471;1302;22800;-30
2022/05/20 02:11:31;;;;;;;2.30;1.10;;;;;;;12.28;52.30;99674.09;103460;1302;22645;-24
2022/05/20 02:14:05;;;;;;;0.90;0.60;;;;;;;12.24;52.61;99669.73;103535;1301;22762;-25
2022/05/20 02:16:37;;;;;;;1.90;0.60;;;;;;;12.19;53.05;99667.80;103455;1302;22797;-24
2022/05/20 02:19:07;;;;;;;0.90;0.50;;;;;;;12.19;52.64;99663.66;103505;1302;22509;-24
2022/05/20 02:21:39;;;;;;;0.90;0.40;;;;;;;12.18;53.02;99660.92;103476;1302;22512;-29
2022/05/20 02:24:10;;;;;;;0.40;0.30;;;;;;;12.16;53.27;99663.69;103419;1302;22516;-29
2022/05/20 02:26:44;;;;;;;1.80;0.70;;;;;;;12.16;52.69;99662.41;103482;1302;24107;-24
2022/05/20 02:29:16;;;;;;;4.50;0.50;;;;;;;12.18;52.63;99662.49;103531;1302;24240;-24
2022/05/20 02:31:55;;;;;;;1.00;0.50;;;;;;;12.27;52.19;99668.55;103461;1302;26202;-28
2022/05/20 02:34:24;;;;;;;1.40;0.70;;;;;;;12.30;52.44;99670.59;103444;1302;22506;-24
2022/05/20 02:36:53;;;;;;;0.70;0.50;;;;;;;12.35;52.38;99667.23;103504;1302;23910;-26
2022/05/20 02:39:22;;;;;;;1.40;0.70;;;;;;;12.37;52.38;99662.55;103477;1302;22522;-25
2022/05/20 02:41:51;;;;;;;2.20;0.40;;;;;;;12.34;52.75;99656.61;103500;1302;22814;-28
2022/05/20 02:44:20;;;;;;;2.90;0.40;;;;;;;12.37;52.44;99659.30;103479;1302;23932;-25
2022/05/20 02:46:49;;;;;;;0.60;0.30;;;;;;;12.42;52.49;99659.57;103481;1302;22525;-25
2022/05/20 02:49:18;;;;;;;1.30;0.70;;;;;;;12.45;52.38;99660.23;103427;1302;22528;-25
2022/05/20 02:51:47;;;;;;;7.00;0.40;;;;;;;12.43;53.01;99659.77;103455;1302;22953;-27
2022/05/20 02:54:16;;;;;;;1.60;0.50;;;;;;;12.44;52.85;99660.20;103495;1302;22500;-24
2022/05/20 02:56:44;;;;;;;3.60;0.60;;;;;;;12.50;52.44;99658.14;103498;1302;22748;-25
2022/05/20 03:04:18;;;;;;;1.70;0.70;;;;;;;12.73;52.45;99652.20;103479;1302;23958;-28
2022/05/20 03:06:49;;;;;;;1.40;0.40;;;;;;;12.75;52.53;99654.27;103433;1302;22510;-25
2022/05/20 03:09:21;;;;;;;0.40;0.40;;;;;;;12.82;52.38;99660.83;103517;1302;22499;-28
2022/05/20 03:11:50;;;;;;;1.70;0.40;;;;;;;12.92;52.14;99662.77;103463;1302;22642;-23
2022/05/20 03:14:20;;;;;;;4.40;0.20;;;;;;;13.05;52.11;99662.52;103476;1302;22609;-24
2022/05/20 03:16:50;;;;;;;1.10;0.40;;;;;;;13.13;51.87;99658.84;103465;1302;22502;-23
2022/05/20 03:19:19;;;;;;;0.90;0.50;;;;;;;13.25;51.64;99661.42;103459;1302;22677;-26
2022/05/20 03:21:49;;;;;;;2.40;0.40;;;;;;;13.40;51.56;99660.53;103445;1302;23065;-30
2022/05/20 03:24:18;;;;;;;4.20;0.50;;;;;;;13.58;51.55;99661.50;103507;1302;23988;-27
2022/05/20 03:26:47;;;;;;;3.40;0.50;;;;;;;13.66;51.29;99656.77;103447;1302;22504;-31
2022/05/20 03:29:16;;;;;;;2.30;0.40;;;;;;;13.78;50.91;99656.66;103489;1302;24220;-25
2022/05/20 03:31:46;;;;;;;6.50;0.90;;;;;;;13.91;50.56;99662.60;103504;1302;22953;-28
2022/05/20 03:34:17;;;;;;;1.80;0.60;;;;;;;13.98;50.49;99664.17;103317;1302;22492;-24
2022/05/20 03:36:48;;;;;;;0.90;0.30;;;;;;;14.08;50.18;99663.84;103530;1302;22577;-24
2022/05/20 03:39:20;;;;;;;3.50;0.50;;;;;;;14.02;50.28;99672.27;103528;1302;22501;-30
2022/05/20 03:41:49;;;;;;;1.20;0.50;;;;;;;14.04;50.55;99670.80;103408;1302;22597;-26
2022/05/20 03:44:18;;;;;;;2.50;0.50;;;;;;;14.03;50.80;99666.95;103490;1302;22505;-29
2022/05/20 03:46:51;;;;;;;1.80;1.30;;;;;;;14.10;50.72;99662.52;103451;1302;24020;-24
2022/05/20 03:49:24;;;;;;;1.40;0.70;;;;;;;14.17;50.37;99670.02;103474;1302;22552;-27
2022/05/20 03:51:53;;;;;;;2.50;0.70;;;;;;;14.23;50.40;99670.14;103491;1302;22655;-24
2022/05/20 03:54:23;;;;;;;5.20;0.30;;;;;;;14.21;50.61;99666.03;103414;1302;22772;-23
2022/05/20 03:56:52;;;;;;;1.50;0.60;;;;;;;14.19;51.02;99677.23;103436;1302;23952;-27
2022/05/20 03:59:21;;;;;;;5.20;0.90;;;;;;;14.30;51.01;99679.52;103497;1302;22890;-26
2022/05/20 04:04:31;;;;;;;2.40;0.60;;;;;;;14.64;49.23;99669.70;103497;1302;22516;-24
2022/05/20 04:07:04;;;;;;;1.90;0.70;;;;;;;14.61;49.46;99670.30;103447;1302;24391;-28
2022/05/20 04:09:33;;;;;;;2.00;1.00;;;;;;;14.56;50.11;99676.36;103442;1301;22499;-28
2022/05/20 04:12:03;;;;;;;2.70;0.50;;;;;;;14.91;49.72;99675.11;103519;1302;23864;-25
2022/05/20 04:14:33;;;;;;;2.20;0.60;;;;;;;14.96;49.25;99669.34;103273;1302;288099;-27
2022/05/20 04:17:03;;;;;;;2.30;0.50;;;;;;;15.11;48.79;99672.94;103539;1302;22746;-27
2022/05/20 04:19:33;;;;;;;1.70;0.30;;;;;;;15.17;48.82;99675.81;103520;1302;24064;-27
2022/05/20 04:22:04;;;;;;;1.20;0.40;;;;;;;15.27;48.83;99679.88;103485;1302;23574;-28
2022/05/20 04:24:34;;;;;;;0.90;0.60;;;;;;;15.27;48.88;99682.77;103455;1302;22548;-28
2022/05/20 04:27:04;;;;;;;4.20;0.90;;;;;;;15.32;48.95;99683.64;103462;1302;22510;-28
2022/05/20 04:29:34;;;;;;;1.90;0.50;;;;;;;15.36;49.00;99689.23;103467;1302;22501;-24
2022/05/20 04:32:03;;;;;;;1.50;0.60;;;;;;;15.12;49.82;99700.11;103464;1302;23962;-27
2022/05/20 04:34:32;;;;;;;1.30;0.50;;;;;;;15.31;49.51;99696.48;103492;1302;22642;-28
2022/05/20 04:37:02;;;;;;;6.50;0.50;;;;;;;15.25;49.65;99698.86;103473;1302;22798;-23
2022/05/20 04:39:31;;;;;;;1.80;0.50;;;;;;;15.52;48.91;99703.17;103414;1302;22503;-29
2022/05/20 04:47:07;;;;;;;3.50;0.70;;;;;;;15.36;49.77;99702.64;103456;1302;22506;-29
2022/05/20 04:49:38;;;;;;;1.00;0.60;;;;;;;15.33;50.06;99709.11;103479;1302;22505;-29
2022/05/20 04:52:07;;;;;;;2.40;0.70;;;;;;;15.43;50.01;99712.16;103462;1302;22942;-28
2022/05/20 04:57:09;;;;;;;2.60;0.50;;;;;;;15.67;49.69;99713.48;103547;1302;22775;-28
2022/05/20 04:59:38;;;;;;;0.50;0.30;;;;;;;15.72;49.59;99714.42;103412;1302;22506;-24
2022/05/20 05:02:08;;;;;;;7.10;0.80;;;;;;;15.97;48.76;99712.62;103512;1302;22521;-25
2022/05/20 05:04:37;;;;;;;1.20;0.50;;;;;;;15.88;49.09;99711.49;103453;1302;22535;-28
2022/05/20 05:07:09;;;;;;;1.50;0.70;;;;;;;15.84;49.55;99710.45;103519;1301;22606;-28
2022/05/20 05:09:39;;;;;;;1.90;0.60;;;;;;;15.87;49.78;99714.54;103521;1302;24924;-25
2022/05/20 05:12:09;;;;;;;2.60;0.40;;;;;;;16.05;49.32;99709.05;103423;1302;22492;-24
2022/05/20 05:14:39;;;;;;;5.30;0.60;;;;;;;16.00;49.85;99706.17;103508;1302;22920;-28
2022/05/20 05:17:09;;;;;;;0.50;0.40;;;;;;;16.06;49.81;99711.98;103756;1302;25389;-23
2022/05/20 05:19:39;;;;;;;1.40;0.60;;;;;;;16.04;50.06;99718.37;103489;1301;22507;-29
2022/05/20 05:22:08;;;;;;;0.70;0.40;;;;;;;16.06;50.20;99725.36;103474;1302;22637;-29
2022/05/20 05:24:37;;;;;;;1.70;0.90;;;;;;;16.41;49.52;99729.02;103478;1302;22819;-28
2022/05/20 05:27:06;;;;;;;2.00;0.60;;;;;;;16.41;49.97;99730.36;103484;1302;22620;-28
2022/05/20 05:29:38;;;;;;;1.70;0.70;;;;;;;16.45;50.17;99732.86;103424;1302;22532;-24
2022/05/20 05:32:07;;;;;;;6.40;0.80;;;;;;;16.51;50.23;99729.20;103533;1302;24101;-28
2022/05/20 05:34:36;;;;;;;1.30;0.60;;;;;;;16.39;51.65;99732.46;103522;1302;22620;-24
2022/05/20 05:37:05;;;;;;;1.00;0.80;;;;;;;16.53;52.06;99734.34;103387;1302;22903;-28
2022/05/20 05:39:34;;;;;;;3.60;0.70;;;;;;;16.45;52.11;99735.02;103451;1302;22496;-28
2022/05/20 05:42:04;;;;;;;1.10;0.40;;;;;;;16.56;51.86;99736.81;103483;1302;24225;-28
2022/05/20 05:44:33;;;;;;;1.80;0.80;;;;;;;16.63;51.70;99734.43;103469;1302;22638;-26
2022/05/20 05:47:02;;;;;;;6.50;0.50;;;;;;;16.79;51.40;99735.48;103466;1302;24355;-24
2022/05/20 05:49:31;;;;;;;1.20;0.70;;;;;;;16.60;51.96;99740.73;103460;1302;22512;-24
2022/05/20 05:52:00;;;;;;;2.70;0.70;;;;;;;16.70;51.85;99741.35;103496;1302;22499;-30
2022/05/20 05:54:30;;;;;;;4.90;0.90;;;;;;;16.64;52.04;99740.47;103493;1302;22897;-27
2022/05/20 05:56:59;;;;;;;1.70;0.80;;;;;;;16.47;52.67;99744.59;103446;1302;22804;-26
2022/05/20 05:59:28;;;;;;;6.00;0.60;;;;;;;16.56;52.97;99747.23;103470;1302;22514;-25
2022/05/20 06:01:58;;;;;;;2.60;0.70;;;;;;;16.87;52.20;99748.41;103518;1302;22610;-24
2022/05/20 06:04:27;;;;;;;2.00;0.80;;;;;;;16.86;52.47;99746.40;103451;1302;22599;-24
2022/05/20 06:06:56;;;;;;;2.30;0.60;;;;;;;16.89;52.56;99747.17;103421;1301;22635;-27
2022/05/20 06:09:26;;;;;;;0.80;0.40;;;;;;;16.53;53.69;99749.73;103388;1302;23040;-25
2022/05/20 06:11:54;;;;;;;5.50;1.00;;;;;;;16.65;53.79;99755.56;103553;1302;24315;-24
2022/05/20 06:14:24;;;;;;;0.80;0.40;;;;;;;16.61;54.10;99755.77;103482;1302;22616;-27
2022/05/20 06:16:53;;;;;;;4.70;1.00;;;;;;;16.70;54.20;99759.80;103492;1302;22576;-28
2022/05/20 06:19:22;;;;;;;4.00;0.80;;;;;;;16.61;54.35;99759.86;103500;1302;23613;-29
2022/05/20 06:21:51;;;;;;;3.60;1.40;;;;;;;16.71;54.33;99758.67;103492;1301;22613;-27
2022/05/20 06:24:20;;;;;;;1.10;0.90;;;;;;;16.88;53.94;99758.63;103505;1302;22525;-27
2022/05/20 06:26:49;;;;;;;2.30;0.90;;;;;;;16.71;54.78;99763.12;103429;1302;22527;-22
2022/05/20 06:29:18;;;;;;;1.80;0.50;;;;;;;16.89;54.18;99765.13;103434;1302;22508;-27
2022/05/20 06:31:47;;;;;;;1.10;0.60;;;;;;;16.87;54.17;99763.65;103534;1302;22832;-24
2022/05/20 06:34:16;;;;;;;3.90;0.60;;;;;;;17.02;53.87;99761.46;103520;1302;22507;-27
2022/05/20 06:42:07;;;;;;;1.80;0.60;;;;;;;17.42;52.98;99761.33;103487;1302;22503;-28
2022/05/20 06:44:36;;;;;;;5.60;0.60;;;;;;;17.48;52.78;99761.10;103479;1302;22828;-28
2022/05/20 06:47:05;;;;;;;4.10;0.70;;;;;;;17.91;51.97;99758.46;103479;1302;24222;-28
2022/05/20 06:49:34;;;;;;;0.60;0.60;;;;;;;17.95;52.25;99756.02;103452;1302;22951;-24
2022/05/20 06:52:04;;;;;;;5.10;0.70;;;;;;;18.02;52.62;99760.42;103516;1302;24226;-28
2022/05/20 06:54:33;;;;;;;2.70;1.10;;;;;;;18.26;52.59;99755.36;103482;1302;25392;-28
2022/05/20 06:57:02;;;;;;;2.00;0.50;;;;;;;18.37;52.57;99758.64;103470;1302;22502;-24
2022/05/20 06:59:31;;;;;;;2.40;0.80;;;;;;;18.50;52.48;99763.45;103480;1302;24292;-28
2022/05/20 07:02:01;;;;;;;15.80;0.90;;;;;;;18.72;52.05;99762.02;103510;1302;22512;-27
2022/05/20 07:04:30;;;;;;;1.00;0.50;;;;;;;18.94;51.98;99761.59;103434;1302;22944;-28
2022/05/20 07:06:59;;;;;;;2.30;0.90;;;;;;;19.19;51.63;99758.30;103457;1302;23588;-28
2022/05/20 07:09:28;;;;;;;2.00;0.60;;;;;;;19.42;51.26;99757.46;103487;1302;25036;-24
2022/05/20 07:11:57;;;;;;;0.80;0.40;;;;;;;19.50;51.23;99756.89;103531;1302;22511;-28
2022/05/20 07:14:26;;;;;;;20.70;2.40;;;;;;;19.92;50.86;99750.67;103493;1302;22643;-28
2022/05/20 07:16:55;;;;;;;1.80;0.80;;;;;;;19.99;51.11;99746.64;103493;1302;22632;-25
2022/05/20 07:19:24;;;;;;;4.20;0.90;;;;;;;20.49;50.26;99748.91;103483;1302;22740;-28
2022/05/20 07:21:53;;;;;;;8.40;0.40;;;;;;;21.11;48.21;99751.27;103454;1302;22635;-28
2022/05/20 07:24:23;;;;;;;0.70;0.60;;;;;;;21.46;48.40;99747.95;103478;1302;23657;-27
2022/05/20 07:26:52;;;;;;;2.40;0.60;;;;;;;21.54;47.91;99753.23;103451;1302;22795;-28
2022/05/20 07:29:21;;;;;;;0.70;0.50;;;;;;;21.55;49.27;99747.60;103444;1302;24975;-24
2022/05/20 07:31:50;;;;;;;1.80;1.10;;;;;;;22.07;48.41;99748.56;103452;1302;23805;-25
2022/05/20 07:34:18;;;;;;;1.80;1.00;;;;;;;22.49;48.04;99749.10;103512;1302;22511;-24
2022/05/20 07:36:47;;;;;;;0.80;0.50;;;;;;;22.23;49.22;99749.31;103481;1302;24149;-28
2022/05/20 07:39:16;;;;;;;1.60;0.90;;;;;;;22.37;49.80;99745.30;103495;1302;22506;-26
2022/05/20 07:41:47;;;;;;;1.20;0.80;;;;;;;22.66;49.46;99740.66;103491;1302;24233;-29
2022/05/20 07:44:15;;;;;;;1.60;1.20;;;;;;;22.92;48.71;99748.60;103535;1302;25229;-24
2022/05/20 07:46:44;;;;;;;5.70;1.10;;;;;;;22.71;50.43;99749.67;103531;1302;23876;-24
2022/05/20 07:49:14;;;;;;;4.00;1.00;;;;;;;23.41;48.24;99745.70;103487;1302;22771;-28
2022/05/20 07:51:45;;;;;;;3.00;1.20;;;;;;;23.68;46.18;99742.94;103467;1302;22971;-28
2022/05/20 07:54:15;;;;;;;1.90;0.70;;;;;;;23.42;46.42;99753.92;103470;1302;25074;-24
2022/05/20 07:56:49;;;;;;;1.30;0.50;;;;;;;23.40;47.07;99756.02;103510;1302;24033;-24
2022/05/20 07:59:19;;;;;;;1.20;0.70;;;;;;;23.33;47.85;99757.27;103468;1302;22598;-28
2022/05/20 08:01:49;;;;;;;6.60;1.20;;;;;;;23.60;46.84;99755.64;103491;1302;22679;-24
2022/05/20 08:06:54;;;;;;;4.10;0.40;;;;;;;23.38;47.63;99752.16;103462;1302;22503;-28
2022/05/20 08:09:23;;;;;;;1.40;0.90;;;;;;;23.70;46.92;99740.77;103452;1302;22502;-24
2022/05/20 08:11:52;;;;;;;4.20;0.80;;;;;;;23.74;46.73;99742.84;103506;1302;22642;-28
2022/05/20 08:14:21;;;;;;;1.20;0.80;;;;;;;24.07;45.85;99744.34;103502;1302;22503;-28
2022/05/20 08:16:50;;;;;;;3.80;0.70;;;;;;;23.98;46.59;99746.86;103462;1302;22631;-24
2022/05/20 08:19:19;;;;;;;1.40;1.10;;;;;;;24.07;46.21;99741.86;103430;1302;22505;-27
2022/05/20 08:21:48;;;;;;;4.40;1.00;;;;;;;23.70;46.94;99743.33;103492;1302;22611;-28
2022/05/20 08:24:18;;;;;;;2.10;1.10;;;;;;;24.15;45.96;99738.67;103505;1302;23172;-27
2022/05/20 08:26:47;;;;;;;2.60;0.90;;;;;;;24.30;45.61;99737.48;103491;1302;22999;-24
2022/05/20 08:29:16;;;;;;;1.10;0.70;;;;;;;24.22;46.08;99742.39;103532;1302;22770;-28
2022/05/20 08:31:45;;;;;;;1.60;0.70;;;;;;;24.29;46.17;99738.80;103489;1302;22609;-24
2022/05/20 08:34:14;;;;;;;4.70;0.50;;;;;;;24.82;46.08;99737.09;103542;1302;23154;-27
2022/05/20 08:36:43;;;;;;;0.80;0.70;;;;;;;25.31;44.89;99735.22;103536;1302;22621;-27
2022/05/20 08:39:12;;;;;;;2.20;0.70;;;;;;;25.24;43.88;99737.62;103530;1299;22929;-24
2022/05/20 08:41:46;;;;;;;1.30;0.50;;;;;;;24.98;43.89;99735.46;103473;1301;22511;-28
2022/05/20 08:44:17;;;;;;;4.40;0.70;;;;;;;25.06;44.98;99728.31;103437;1302;22524;-25
2022/05/20 08:46:46;;;;;;;10.10;0.80;;;;;;;25.87;42.67;99729.52;103520;1302;25089;-28
2022/05/20 08:49:17;;;;;;;1.20;0.90;;;;;;;25.57;44.04;99724.02;103493;1302;23804;-24
2022/05/20 08:51:49;;;;;;;5.10;0.80;;;;;;;25.84;43.89;99722.04;103465;1302;24252;-24
2022/05/20 08:54:19;;;;;;;1.40;0.50;;;;;;;25.86;43.68;99718.39;103295;1302;23892;-24
2022/05/20 08:56:48;;;;;;;14.30;0.80;;;;;;;26.20;42.65;99715.66;103392;1302;22529;-27
2022/05/20 08:59:18;;;;;;;1.90;0.70;;;;;;;26.37;41.73;99710.60;103571;1302;22512;-27
2022/05/20 09:01:50;;;;;;;1.20;0.70;;;;;;;26.44;43.04;99710.56;103500;1302;22810;-24
2022/05/20 09:04:22;;;;;;;0.70;0.50;;;;;;;26.82;42.00;99705.28;103504;1302;22663;-24
2022/05/20 09:06:55;;;;;;;5.00;1.80;;;;;;;26.63;42.46;99710.07;103495;1302;22627;-27
2022/05/20 09:09:26;;;;;;;1.60;0.60;;;;;;;26.48;43.17;99709.95;103456;1302;24335;-24
2022/05/20 09:11:56;;;;;;;1.00;0.60;;;;;;;26.57;41.72;99717.90;103474;1302;22504;-24
2022/05/20 09:17:03;;;;;;;0.80;0.70;;;;;;;25.78;43.98;99714.88;103438;1302;22508;-27
2022/05/20 09:19:32;;;;;;;4.80;0.90;;;;;;;25.51;44.82;99716.02;103441;1302;22651;-24
2022/05/20 09:22:04;;;;;;;1.40;0.70;;;;;;;25.24;45.66;99713.41;103540;1299;22506;-27
2022/05/20 09:24:37;;;;;;;0.70;0.60;;;;;;;25.23;44.61;99713.66;103506;1302;22504;-24
2022/05/20 09:27:09;;;;;;;1.10;0.60;;;;;;;25.33;44.63;99706.77;103487;1302;23953;-28
2022/05/20 09:29:41;;;;;;;4.80;0.70;;;;;;;25.67;45.38;99706.39;103510;1302;22680;-23
2022/05/20 09:32:17;;;;;;;3.30;0.90;;;;;;;26.34;43.11;99701.20;103546;1301;22512;-27
2022/05/20 09:34:53;;;;;;;1.50;0.50;;;;;;;26.00;44.16;99698.18;103452;1302;22511;-23
2022/05/20 09:37:23;;;;;;;1.40;0.80;;;;;;;26.30;42.76;99696.70;103464;1302;22758;-23
2022/05/20 09:39:52;;;;;;;4.70;1.60;;;;;;;26.68;42.99;99696.28;103470;1302;22634;-23
2022/05/20 09:42:25;;;;;;;0.90;0.50;;;;;;;26.82;43.61;99700.74;103496;1302;22803;-24
2022/05/20 09:44:56;;;;;;;3.60;2.80;;;;;;;26.72;43.11;99695.96;103512;1302;22769;-23
2022/05/20 09:47:28;;;;;;;1.40;0.90;;;;;;;27.14;42.14;99705.36;103500;1302;24250;-27
2022/05/20 09:50:02;;;;;;;5.90;1.20;;;;;;;27.21;41.57;99698.11;103535;1302;24043;-24
2022/05/20 09:52:32;;;;;;;1.20;0.50;;;;;;;26.94;42.68;99693.67;103501;1302;22600;-27
2022/05/20 09:55:03;;;;;;;1.00;0.70;;;;;;;27.56;41.26;99691.29;103524;1302;23490;-24
2022/05/20 09:57:37;;;;;;;0.90;0.50;;;;;;;27.91;41.21;99694.05;103497;1302;23880;-27
2022/05/20 10:00:13;;;;;;;1.40;0.70;;;;;;;27.94;40.76;99690.39;103517;1302;22505;-27
2022/05/20 10:02:50;;;;;;;6.50;0.70;;;;;;;27.56;41.25;99690.62;103474;1302;22505;-26
2022/05/20 10:05:22;;;;;;;0.80;0.40;;;;;;;27.30;41.81;99678.96;103475;1302;24351;-27
2022/05/20 10:07:58;;;;;;;0.70;0.50;;;;;;;27.57;41.66;99684.42;103525;1302;22503;-27
2022/05/20 10:10:33;;;;;;;1.50;0.70;;;;;;;27.96;39.97;99674.10;103452;1302;22662;-27
2022/05/20 10:13:04;;;;;;;1.00;0.60;;;;;;;27.91;40.26;99674.50;103485;1302;22557;-27
2022/05/20 10:15:40;;;;;;;0.60;0.60;;;;;;;27.65;40.75;99670.43;103494;1301;24161;-24
2022/05/20 10:18:15;;;;;;;10.90;0.80;;;;;;;27.26;41.44;99673.63;103416;1302;22499;-24
2022/05/20 10:20:55;;;;;;;0.80;0.60;;;;;;;27.82;40.82;99665.89;103424;1302;22972;-24
2022/05/20 10:23:33;;;;;;;0.30;0.20;;;;;;;27.56;40.47;99665.52;103451;1302;22788;-24
2022/05/20 10:26:07;;;;;;;3.70;0.70;;;;;;;28.10;39.59;99662.53;103480;1302;22515;-25
2022/05/20 10:33:52;;;;;;;1.80;0.60;;;;;;;27.94;39.45;99651.30;103423;1301;24240;-28
2022/05/20 10:36:26;;;;;;;1.00;0.50;;;;;;;28.19;39.63;99641.98;103523;1302;22492;-24
2022/05/20 10:38:58;;;;;;;0.90;0.50;;;;;;;28.30;39.12;99638.34;103453;1302;24220;-28
2022/05/20 10:41:34;;;;;;;1.20;0.60;;;;;;;28.51;39.68;99634.04;103542;1302;22624;-28
2022/05/20 10:49:33;;;;;;;2.20;0.40;;;;;;;29.11;37.97;99629.48;103498;1302;23570;-28
2022/05/20 10:52:09;;;;;;;1.40;0.90;;;;;;;28.90;38.26;99635.09;103477;1302;22502;-28
2022/05/20 10:54:45;;;;;;;2.90;0.50;;;;;;;28.95;38.24;99643.48;103473;1302;22510;-28
2022/05/20 10:57:18;;;;;;;2.30;1.30;;;;;;;29.09;38.13;99638.02;103479;1302;22521;-24
2022/05/20 10:59:54;;;;;;;1.00;0.70;;;;;;;28.64;37.74;99642.04;103519;1302;22509;-28
2022/05/20 11:02:41;;;;;;;0.40;0.40;;;;;;;28.67;38.33;99641.34;103548;1302;23847;-24
2022/05/20 11:05:34;;;;;;;0.60;0.40;;;;;;;28.87;38.11;99635.19;103501;1302;22771;-24
2022/05/20 11:08:21;;;;;;;0.90;0.50;;;;;;;29.54;36.24;99626.84;103506;1302;24219;-24
2022/05/20 11:11:01;;;;;;;0.70;0.40;;;;;;;29.07;37.12;99629.22;103532;1302;22566;-24
2022/05/20 11:13:45;;;;;;;1.90;0.60;;;;;;;28.80;37.31;99621.27;103497;1302;22794;-28
2022/05/20 11:16:22;;;;;;;9.10;1.10;;;;;;;28.67;37.57;99622.61;103421;1302;23249;-27
2022/05/20 11:18:52;;;;;;;0.70;0.50;;;;;;;28.18;37.94;99625.65;103491;1302;22502;-27
2022/05/20 11:21:24;;;;;;;0.60;0.40;;;;;;;28.39;37.55;99625.45;103509;1302;24311;-28
2022/05/20 11:24:01;;;;;;;1.20;0.70;;;;;;;28.16;38.74;99626.77;103550;1302;22502;-24
2022/05/20 11:26:33;;;;;;;2.20;0.70;;;;;;;27.90;40.63;99624.58;103464;1302;22502;-24
2022/05/20 11:29:18;;;;;;;4.00;0.60;;;;;;;28.16;40.45;99622.69;103546;1302;22514;-24
2022/05/20 11:32:02;;;;;;;0.70;0.40;;;;;;;28.38;38.92;99621.02;103629;1302;22767;-24
2022/05/20 11:34:38;;;;;;;1.30;0.60;;;;;;;27.66;41.02;99620.50;103478;1302;22785;-24
2022/05/20 11:37:17;;;;;;;0.70;0.60;;;;;;;27.19;41.81;99618.98;103451;1302;22609;-24
2022/05/20 11:39:55;;;;;;;0.20;0.20;;;;;;;27.80;39.84;99614.91;103490;1302;22506;-29
2022/05/20 11:42:31;;;;;;;2.00;1.00;;;;;;;28.33;40.48;99611.36;103432;1302;23469;-24
2022/05/20 11:47:46;;;;;;;1.70;0.60;;;;;;;28.50;39.39;99614.64;103446;1302;22611;-28
2022/05/20 11:50:22;;;;;;;1.20;0.50;;;;;;;28.31;38.85;99604.13;103475;1302;22505;-28
2022/05/20 11:52:54;;;;;;;1.10;0.40;;;;;;;28.63;38.35;99598.01;103438;1302;22738;-24
2022/05/20 11:55:33;;;;;;;0.60;0.40;;;;;;;28.42;38.70;99595.99;103537;1302;23886;-24
2022/05/20 11:58:04;;;;;;;3.50;0.60;;;;;;;28.85;37.32;99597.78;103509;1302;22614;-28
2022/05/20 12:00:37;;;;;;;0.40;0.40;;;;;;;28.21;39.22;99598.75;103492;1302;22598;-28
2022/05/20 12:03:10;;;;;;;1.50;0.50;;;;;;;27.90;39.62;99595.58;103497;1302;22505;-28
2022/05/20 12:05:43;;;;;;;0.70;0.20;;;;;;;28.97;37.82;99597.32;103516;1302;22517;-28
2022/05/20 12:08:19;;;;;;;1.00;0.60;;;;;;;28.70;38.74;99589.84;103573;1302;21841;-24
2022/05/20 12:10:49;;;;;;;6.20;0.90;;;;;;;28.72;38.10;99595.81;103581;1302;24309;-28
2022/05/20 12:13:21;;;;;;;1.10;0.40;;;;;;;28.30;39.94;99598.92;103563;1302;22502;-24
2022/05/20 12:16:10;;;;;;;1.60;1.00;;;;;;;28.97;37.35;99591.74;103308;1302;397674;-25
2022/05/20 12:24:12;;;;;;;0.90;0.80;;;;;;;28.88;38.34;99588.17;103481;1302;22503;-24
2022/05/20 12:26:46;;;;;;;0.80;0.50;;;;;;;28.34;39.81;99581.70;103458;1302;22507;-28
2022/05/20 12:29:22;;;;;;;0.90;0.70;;;;;;;29.15;38.66;99578.52;103436;1301;22521;-28